Time;durP1;ratioP1;P1;durP2;ratioP2;P2;SDS_P1;SDS_P2;PMS_P1;PMS_P2;Temp;Humidity;BMP_temperature;BMP_pressure;BME280_temperature;BME280_humidity;BME280_pressure;Samples;Min_cycle;Max_cycle;Signal;HPM_P1;HPM_P2
2024/01/24 00:02:10;;;;;;;12.85;5.30;;;;;;;;;;5068166;28;20047;-66
2024/01/24 00:04:36;;;;;;;15.68;4.95;;;;;;;;;;5059320;28;20047;-66
2024/01/24 00:07:03;;;;;;;15.43;5.60;;;;;;;;;;5063682;28;20092;-67
2024/01/24 00:09:31;;;;;;;15.60;5.32;;;;;;;;;;5065947;28;20044;-66
2024/01/24 00:11:58;;;;;;;9.82;5.93;;;;;;;;;;5069526;28;20040;-67
2024/01/24 00:14:24;;;;;;;21.80;5.88;;;;;;;;;;5066894;28;20119;-66
2024/01/24 00:16:50;;;;;;;12.02;5.13;;;;;;;;;;5069387;28;20037;-68
2024/01/24 00:19:16;;;;;;;16.95;4.53;;;;;;;;;;5068203;28;20051;-67
2024/01/24 00:21:42;;;;;;;15.20;5.93;;;;;;;;;;5063081;28;20055;-67
2024/01/24 00:24:09;;;;;;;12.55;5.57;;;;;;;;;;5070184;28;20060;-68
2024/01/24 00:26:38;;;;;;;17.50;5.95;;;;;;;;;;5067205;28;20047;-68
2024/01/24 00:29:04;;;;;;;17.27;5.63;;;;;;;;;;5074408;28;20091;-67
2024/01/24 00:31:30;;;;;;;16.30;5.80;;;;;;;;;;5072108;28;20036;-67
2024/01/24 00:33:56;;;;;;;20.63;5.72;;;;;;;;;;5074224;28;20146;-67
2024/01/24 00:36:23;;;;;;;17.13;5.95;;;;;;;;;;5071447;28;20043;-68
2024/01/24 00:38:49;;;;;;;18.30;5.60;;;;;;;;;;5074471;28;20041;-68
2024/01/24 00:41:16;;;;;;;13.02;5.20;;;;;;;;;;5066928;28;20393;-67
2024/01/24 00:43:42;;;;;;;18.42;5.45;;;9.20;99.90;;;;;;5072737;28;20354;-67
2024/01/24 00:46:08;;;;;;;15.18;5.70;;;9.40;99.90;;;;;;5065225;28;20051;-67
2024/01/24 00:48:34;;;;;;;16.27;5.38;;;;;;;;;;5071856;28;20037;-67
2024/01/24 00:51:00;;;;;;;15.75;5.43;;;;;;;;;;5062174;28;20087;-67
2024/01/24 00:53:29;;;;;;;24.35;6.47;;;;;;;;;;5056121;28;20033;-68
2024/01/24 00:55:56;;;;;;;16.48;5.13;;;;;;;;;;5059900;28;20051;-68
2024/01/24 00:58:22;;;;;;;13.30;5.28;;;;;;;;;;5070469;28;20401;-67
2024/01/24 01:00:48;;;;;;;18.15;4.32;;;;;;;;;;5059720;28;20254;-67
2024/01/24 01:03:14;;;;;;;13.52;4.78;;;;;;;;;;5056374;28;20049;-67
2024/01/24 01:05:41;;;;;;;27.63;6.22;;;;;;;;;;5061433;28;20043;-67
2024/01/24 01:08:07;;;;;;;17.27;5.40;;;;;;;;;;5064228;28;20040;-67
2024/01/24 01:10:33;;;;;;;15.10;4.88;;;;;;;;;;5070099;28;20493;-67
2024/01/24 01:12:59;;;;;;;18.05;6.03;;;;;;;;;;5072028;28;20119;-67
2024/01/24 01:15:26;;;;;;;13.05;4.25;;;;;;;;;;5068065;28;20123;-67
2024/01/24 01:17:52;;;;;;;13.07;5.47;;;;;;;;;;5061481;28;20067;-67
2024/01/24 01:20:21;;;;;;;25.13;6.18;;;;;;;;;;5058193;28;20052;-67
2024/01/24 01:22:48;;;;;;;15.65;5.38;;;;;;;;;;5064619;28;20432;-68
2024/01/24 01:25:14;;;;;;;17.27;6.03;;;;;;;;;;5060799;28;20424;-67
2024/01/24 01:27:40;;;;;;;15.13;5.78;;;;;;;;;;5053409;28;20099;-68
2024/01/24 01:30:07;;;;;;;17.08;5.45;;;;;;;;;;5066939;28;20104;-67
2024/01/24 01:32:33;;;;;;;19.77;6.07;;;;;;;;;;5054843;28;20037;-67
2024/01/24 01:34:59;;;;;;;13.60;4.35;;;;;;;;;;5062508;28;20102;-67
2024/01/24 01:37:26;;;;;;;11.60;3.78;;;;;;;;;;5055354;28;20451;-67
2024/01/24 01:39:52;;;;;;;16.17;4.50;;;;;;;;;;5052918;28;20040;-67
2024/01/24 01:42:18;;;;;;;14.88;4.13;;;;;;;;;;5058508;28;20146;-67
2024/01/24 01:44:47;;;;;;;12.52;4.35;;;;;;;;;;5050071;28;20563;-66
2024/01/24 01:47:15;;;;;;;12.63;3.85;;;;;;;;;;5056708;28;20037;-68
2024/01/24 01:49:44;;;;;;;12.90;3.80;;;;;;;;;;5060409;28;20080;-67
2024/01/24 01:52:11;;;;;;;16.02;4.88;;;;;;;;;;5056215;28;20052;-67
2024/01/24 01:54:38;;;;;;;12.38;4.30;;;;;;;;;;5062414;28;20041;-67
2024/01/24 01:57:05;;;;;;;15.27;3.55;;;;;;;;;;5065427;28;20052;-67
2024/01/24 01:59:32;;;;;;;8.85;4.03;;;9.40;99.90;;;;;;5071266;28;20432;-67
2024/01/24 02:02:00;;;;;;;11.85;5.13;;;9.70;99.90;;;;;;5070998;28;20094;-67
2024/01/24 02:04:28;;;;;;;12.73;4.63;;;9.70;99.90;;;;;;5066937;28;20527;-68
2024/01/24 02:06:55;;;;;;;9.48;4.40;;;9.70;99.90;;;;;;5070765;28;20124;-66
2024/01/24 02:09:22;;;;;;;9.48;3.78;;;9.70;99.90;;;;;;5068845;28;20032;-67
2024/01/24 02:11:48;;;;;;;16.77;4.70;;;9.70;99.90;;;;;;5071112;28;20430;-68
2024/01/24 02:14:13;;;;;;;8.63;4.28;;;9.70;99.90;;;;;;5070457;28;20100;-67
2024/01/24 02:16:39;;;;;;;19.25;4.82;;;9.70;99.90;;;;;;5069189;28;20076;-67
2024/01/24 02:19:06;;;;;;;20.65;4.72;;;9.70;99.90;;;;;;5065594;28;20036;-67
2024/01/24 02:21:32;;;;;;;11.02;4.50;;;9.70;99.90;;;;;;5070147;28;20079;-68
2024/01/24 02:24:00;;;;;;;13.65;4.50;;;9.70;99.90;;;;;;5070173;28;20486;-67
2024/01/24 02:26:26;;;;;;;9.82;4.50;;;9.70;99.90;;;;;;5070109;28;20044;-68
2024/01/24 02:28:51;;;;;;;15.90;5.65;;;9.80;99.90;;;;;;5071119;28;20110;-68
2024/01/24 02:31:17;;;;;;;13.65;5.63;;;9.70;99.90;;;;;;5070067;28;20497;-67
2024/01/24 02:33:43;;;;;;;13.55;4.15;;;9.70;99.90;;;;;;5069709;28;20040;-68
2024/01/24 02:36:15;;;;;;;12.65;4.78;;;9.70;99.90;;;;;;5068906;28;20048;-68
2024/01/24 02:38:41;;;;;;;15.65;5.35;;;9.70;99.90;;;;;;5070232;28;20044;-67
2024/01/24 02:41:07;;;;;;;17.52;4.03;;;9.70;99.90;;;;;;5067519;28;20067;-67
2024/01/24 02:43:34;;;;;;;14.45;4.47;;;9.70;99.90;;;;;;5071200;28;20044;-67
2024/01/24 02:46:03;;;;;;;20.95;4.47;;;9.80;99.90;;;;;;5069989;28;20408;-68
2024/01/24 02:48:28;;;;;;;11.00;3.63;;;9.70;99.90;;;;;;5069152;28;20415;-68
2024/01/24 02:50:55;;;;;;;14.00;4.00;;;9.70;99.90;;;;;;5069125;28;20037;-67
2024/01/24 02:53:20;;;;;;;16.75;4.63;;;9.70;99.90;;;;;;5070833;28;20041;-67
2024/01/24 02:55:46;;;;;;;9.88;4.78;;;9.70;99.90;;;;;;5068059;28;20078;-67
2024/01/24 02:58:12;;;;;;;18.92;6.28;;;9.70;99.90;;;;;;5070422;28;20048;-68
2024/01/24 03:00:38;;;;;;;13.55;4.72;;;9.70;99.90;;;;;;5069763;28;20059;-67
2024/01/24 03:03:04;;;;;;;14.02;4.43;;;9.70;99.90;;;;;;5065204;28;20055;-68
2024/01/24 03:05:30;;;;;;;13.90;4.97;;;9.70;99.90;;;;;;5068657;28;20044;-68
2024/01/24 03:07:58;;;;;;;15.43;5.15;;;9.70;99.90;;;;;;5083732;28;20045;-68
2024/01/24 03:10:27;;;;;;;15.75;4.65;;;9.60;99.90;;;;;;5069762;28;20481;-67
2024/01/24 03:12:53;;;;;;;17.50;5.55;;;9.70;99.90;;;;;;5052838;28;20407;-67
2024/01/24 03:15:20;;;;;;;14.15;4.93;;;9.70;99.90;;;;;;5069631;28;20245;-67
2024/01/24 03:17:46;;;;;;;23.48;4.88;;;9.60;99.90;;;;;;5065106;28;20454;-67
2024/01/24 03:20:13;;;;;;;11.68;4.50;;;9.60;99.90;;;;;;5067178;28;20041;-68
2024/01/24 03:22:39;;;;;;;16.88;5.57;;;9.60;99.90;;;;;;5069902;28;20067;-67
2024/01/24 03:25:06;;;;;;;17.20;6.40;;;9.60;99.90;;;;;;5065045;28;20033;-67
2024/01/24 03:27:32;;;;;;;16.70;5.82;;;9.60;99.90;;;;;;5065852;28;20036;-68
2024/01/24 03:29:58;;;;;;;21.95;6.13;;;9.60;99.90;;;;;;5068638;28;20060;-67
2024/01/24 03:32:24;;;;;;;21.67;5.88;;;9.60;99.90;;;;;;5066332;28;20123;-67
2024/01/24 03:35:01;;;;;;;23.35;6.78;;;9.60;99.90;;;;;;5062968;28;20106;-68
2024/01/24 03:37:27;;;;;;;18.98;5.75;;;9.50;99.90;;;;;;5064987;28;20451;-68
2024/01/24 03:39:52;;;;;;;13.68;6.63;;;9.50;99.90;;;;;;5068973;28;20036;-68
2024/01/24 03:42:18;;;;;;;17.63;5.45;;;9.60;99.90;;;;;;5067906;28;20082;-67
2024/01/24 03:44:44;;;;;;;17.75;6.60;;;9.60;99.90;;;;;;5068716;28;20067;-67
2024/01/24 03:47:10;;;;;;;17.58;5.50;;;9.50;99.90;;;;;;5064633;28;20226;-67
2024/01/24 03:49:36;;;;;;;15.05;4.85;;;9.60;99.90;;;;;;5069077;28;20047;-67
2024/01/24 03:52:02;;;;;;;18.90;5.70;;;9.50;99.90;;;;;;5068138;28;20040;-68
2024/01/24 03:54:28;;;;;;;15.95;5.43;;;9.50;99.90;;;;;;5066074;28;20036;-67
2024/01/24 03:56:54;;;;;;;21.90;5.80;;;9.50;99.90;;;;;;5057156;28;20199;-68
2024/01/24 03:59:20;;;;;;;16.00;6.00;;;9.50;99.90;;;;;;5054356;28;20036;-66
2024/01/24 04:01:45;;;;;;;15.23;6.47;;;9.60;99.90;;;;;;5059361;28;20041;-67
2024/01/24 04:04:11;;;;;;;18.92;5.78;;;9.50;99.90;;;;;;5051562;28;20041;-67
2024/01/24 04:06:37;;;;;;;17.10;6.18;;;9.50;99.90;;;;;;5052658;28;20059;-67
2024/01/24 04:09:03;;;;;;;15.23;5.68;;;9.50;99.90;;;;;;5053466;28;20040;-67
2024/01/24 04:11:29;;;;;;;19.05;5.65;;;9.50;99.90;;;;;;5055446;28;20106;-67
2024/01/24 04:13:56;;;;;;;21.15;6.55;;;9.50;99.90;;;;;;5065878;28;20055;-67
2024/01/24 04:16:22;;;;;;;19.30;6.47;;;9.50;99.90;;;;;;5062112;28;20536;-67
2024/01/24 04:18:51;;;;;;;17.80;6.72;;;9.50;99.90;;;;;;5063003;28;20037;-68
2024/01/24 04:21:17;;;;;;;20.63;7.85;;;9.50;99.90;;;;;;5063446;28;20064;-67
2024/01/24 04:23:43;;;;;;;28.30;7.60;;;9.50;99.90;;;;;;5061263;28;20041;-67
2024/01/24 04:26:09;;;;;;;19.05;6.43;;;9.50;99.90;;;;;;5062125;28;20838;-68
2024/01/24 04:28:35;;;;;;;20.00;7.07;;;9.50;99.90;;;;;;5067620;28;20129;-67
2024/01/24 04:31:01;;;;;;;25.92;7.25;;;9.50;99.90;;;;;;5060832;28;20044;-67
2024/01/24 04:33:27;;;;;;;33.75;9.50;;;9.50;99.90;;;;;;5068535;28;20041;-66
2024/01/24 04:35:55;;;;;;;18.95;7.78;;;9.50;99.90;;;;;;5058986;28;20124;-67
2024/01/24 04:38:21;;;;;;;25.35;7.50;;;9.50;99.90;;;;;;5062608;28;20094;-68
2024/01/24 04:40:47;;;;;;;24.60;7.57;;;9.50;99.90;;;;;;5054031;28;20047;-67
2024/01/24 04:43:13;;;;;;;24.23;9.35;;;9.40;99.90;;;;;;5062740;28;20119;-67
2024/01/24 04:45:39;;;;;;;22.67;7.57;;;9.50;99.90;;;;;;5065018;28;20057;-67
2024/01/24 04:48:06;;;;;;;25.08;8.02;;;9.40;99.90;;;;;;5058820;28;20041;-67
2024/01/24 04:50:32;;;;;;;31.70;7.45;;;9.50;99.90;;;;;;5074666;28;20033;-67
2024/01/24 04:52:57;;;;;;;21.83;8.80;;;9.50;99.90;;;;;;5066117;28;20351;-67
2024/01/24 04:55:23;;;;;;;26.77;10.05;;;9.40;99.90;;;;;;5056564;28;20572;-66
2024/01/24 04:57:49;;;;;;;26.77;8.07;;;9.40;99.90;;;;;;5062159;28;20047;-66
2024/01/24 05:00:15;;;;;;;24.70;8.57;;;9.40;99.90;;;;;;5055756;28;20044;-66
2024/01/24 05:02:40;;;;;;;27.60;10.38;;;9.40;99.90;;;;;;5059045;28;20123;-68
2024/01/24 05:05:07;;;;;;;23.67;7.90;;;9.40;99.90;;;;;;5048231;28;20498;-66
2024/01/24 05:07:36;;;;;;;34.35;9.77;;;9.40;99.90;;;;;;5050594;28;20041;-67
2024/01/24 05:10:06;;;;;;;33.03;9.02;;;9.40;99.90;;;;;;5061830;28;20455;-67
2024/01/24 05:12:32;;;;;;;35.60;10.38;;;9.40;99.90;;;;;;5059670;28;20090;-66
2024/01/24 05:14:57;;;;;;;26.63;10.27;;;9.40;99.90;;;;;;5068019;28;20048;-66
2024/01/24 05:17:23;;;;;;;27.27;9.68;;;9.30;99.90;;;;;;5059638;28;20068;-66
2024/01/24 05:19:49;;;;;;;33.95;9.88;;;9.40;99.90;;;;;;5063349;28;20040;-66
2024/01/24 05:22:15;;;;;;;24.40;10.93;;;9.40;99.90;;;;;;5053926;28;20051;-68
2024/01/24 05:24:45;;;;;;;39.53;10.50;;;9.30;99.90;;;;;;5071606;28;20063;-67
2024/01/24 05:27:12;;;;;;;26.50;9.93;;;9.30;99.90;;;;;;5064268;28;20041;-66
2024/01/24 05:29:39;;;;;;;26.90;10.05;;;9.30;99.90;;;;;;5070050;28;20328;-66
2024/01/24 05:32:05;;;;;;;23.95;9.43;;;9.30;99.90;;;;;;5070063;28;20041;-67
2024/01/24 05:34:31;;;;;;;32.13;10.48;;;9.30;99.90;;;;;;5066751;28;20131;-67
2024/01/24 05:36:57;;;;;;;28.75;9.95;;;9.30;99.90;;;;;;5056027;28;20734;-67
2024/01/24 05:39:23;;;;;;;31.65;11.05;;;9.30;99.90;;;;;;5058439;28;20052;-67
2024/01/24 05:41:48;;;;;;;24.20;8.90;;;9.30;99.90;;;;;;5059809;28;20496;-67
2024/01/24 05:44:14;;;;;;;32.35;9.60;;;9.30;99.90;;;;;;5064866;28;20522;-66
2024/01/24 05:46:40;;;;;;;27.45;10.52;;;9.30;99.90;;;;;;5064460;28;20179;-67
2024/01/24 05:49:06;;;;;;;31.10;10.02;;;9.20;99.90;;;;;;5079418;28;20587;-68
2024/01/24 05:51:32;;;;;;;40.67;10.73;;;9.20;99.90;;;;;;5071047;28;20064;-67
2024/01/24 05:53:58;;;;;;;47.15;10.25;;;9.20;99.90;;;;;;5057507;28;20056;-66
2024/01/24 05:56:24;;;;;;;30.63;9.82;;;9.20;99.90;;;;;;5052680;28;20037;-66
2024/01/24 05:58:49;;;;;;;29.25;9.73;;;9.20;99.90;;;;;;5061366;28;20040;-67
2024/01/24 06:01:15;;;;;;;30.98;11.05;;;9.20;99.90;;;;;;5051410;28;20044;-66
2024/01/24 06:03:41;;;;;;;40.47;11.43;;;9.20;99.90;;;;;;5050793;28;20503;-67
2024/01/24 06:06:07;;;;;;;20.65;8.50;;;9.20;99.90;;;;;;5052510;28;20119;-66
2024/01/24 06:08:33;;;;;;;36.63;10.73;;;9.20;99.90;;;;;;5054031;28;20623;-67
2024/01/24 06:10:59;;;;;;;34.88;11.43;;;9.10;99.90;;;;;;5056979;28;20041;-67
2024/01/24 06:13:25;;;;;;;35.40;12.02;;;9.10;99.90;;;;;;5077472;28;20305;-66
2024/01/24 06:15:54;;;;;;;28.08;9.10;;;9.10;99.90;;;;;;5065533;28;20115;-67
2024/01/24 06:18:19;;;;;;;27.77;11.00;;;9.10;99.90;;;;;;5060526;28;20040;-67
2024/01/24 06:20:45;;;;;;;43.17;10.98;;;9.10;99.90;;;;;;5054459;28;20044;-68
2024/01/24 06:23:12;;;;;;;35.88;12.07;;;9.10;99.90;;;;;;5055766;28;20115;-66
2024/01/24 06:25:38;;;;;;;41.67;13.25;;;9.10;99.90;;;;;;5062610;28;20132;-66
2024/01/24 06:28:04;;;;;;;28.77;10.65;;;9.00;99.90;;;;;;5052014;28;20104;-66
2024/01/24 06:30:30;;;;;;;32.95;11.73;;;9.10;99.90;;;;;;5055509;28;20041;-67
2024/01/24 06:32:56;;;;;;;25.42;11.43;;;9.00;99.90;;;;;;5056029;28;20041;-66
2024/01/24 06:35:23;;;;;;;30.65;10.40;;;9.00;99.90;;;;;;5054646;28;20063;-67
2024/01/24 06:37:49;;;;;;;31.75;12.60;;;9.00;99.90;;;;;;5059258;28;20048;-67
2024/01/24 06:40:15;;;;;;;35.67;10.50;;;9.00;99.90;;;;;;5058418;28;20126;-67
2024/01/24 06:42:41;;;;;;;33.55;10.73;;;9.00;99.90;;;;;;5061639;28;20702;-66
2024/01/24 06:45:08;;;;;;;29.73;11.15;;;9.00;99.90;;;;;;5082792;28;20271;-66
2024/01/24 06:47:34;;;;;;;36.47;11.60;;;8.90;99.90;;;;;;5057101;28;20036;-67
2024/01/24 06:50:00;;;;;;;37.50;10.80;;;8.90;99.90;;;;;;5066481;28;20563;-66
2024/01/24 06:52:27;;;;;;;31.92;11.13;;;8.90;99.90;;;;;;5053137;28;20128;-67
2024/01/24 06:54:53;;;;;;;38.63;13.50;;;8.90;99.90;;;;;;5060121;28;20052;-68
2024/01/24 06:57:19;;;;;;;39.35;11.23;;;8.90;99.90;;;;;;5069133;28;20032;-67
2024/01/24 06:59:45;;;;;;;34.97;10.75;;;8.90;99.90;;;;;;5053142;28;20108;-67
2024/01/24 07:02:13;;;;;;;30.80;11.77;;;8.90;99.90;;;;;;5048436;28;20045;-67
2024/01/24 07:04:39;;;;;;;29.08;10.65;;;8.80;99.90;;;;;;5067105;28;20037;-67
2024/01/24 07:07:04;;;;;;;45.40;12.40;;;8.80;99.90;;;;;;5058678;28;20489;-67
2024/01/24 07:09:30;;;;;;;30.10;9.90;;;8.80;99.90;;;;;;5060476;28;20124;-66
2024/01/24 07:11:56;;;;;;;31.73;10.32;;;8.80;99.90;;;;;;5052606;28;20052;-68
2024/01/24 07:14:22;;;;;;;36.05;11.55;;;8.80;99.90;;;;;;5055777;28;20092;-66
2024/01/24 07:16:48;;;;;;;38.90;10.05;;;8.80;99.90;;;;;;5064080;28;20044;-66
2024/01/24 07:19:15;;;;;;;29.65;10.07;;;8.70;99.90;;;;;;5060531;28;20436;-66
2024/01/24 07:21:41;;;;;;;31.67;10.18;;;8.70;99.90;;;;;;5056294;28;20259;-67
2024/01/24 07:24:07;;;;;;;24.67;10.80;;;8.70;99.90;;;;;;5056961;28;20372;-66
2024/01/24 07:26:34;;;;;;;31.60;10.95;;;8.70;99.90;;;;;;5060198;28;20033;-66
2024/01/24 07:29:00;;;;;;;29.95;10.13;;;8.70;99.90;;;;;;5059489;28;20032;-66
2024/01/24 07:31:25;;;;;;;24.00;10.20;;;8.70;99.90;;;;;;5056051;28;20602;-66
2024/01/24 07:33:51;;;;;;;40.92;11.15;;;8.70;99.90;;;;;;5061782;28;20044;-66
2024/01/24 07:36:20;;;;;;;33.97;10.10;;;8.70;99.90;;;;;;5058499;28;20477;-66
2024/01/24 07:38:47;;;;;;;28.40;10.68;;;8.70;99.90;;;;;;5055387;28;20120;-67
2024/01/24 07:41:13;;;;;;;29.85;9.73;;;8.70;99.90;;;;;;5054744;28;20040;-67
2024/01/24 07:43:40;;;;;;;26.85;9.57;;;;;;;;;;5049590;28;20098;-67
2024/01/24 07:46:06;;;;;;;28.30;8.70;;;;;;;;;;5064807;28;20520;-68
2024/01/24 07:48:32;;;;;;;33.45;10.40;;;8.60;99.90;;;;;;5060713;28;20520;-68
2024/01/24 07:50:57;;;;;;;45.22;11.70;;;8.60;99.90;;;;;;5062316;28;20045;-67
2024/01/24 07:53:23;;;;;;;27.98;9.68;;;8.60;99.90;;;;;;5059134;28;20044;-68
2024/01/24 07:55:49;;;;;;;35.97;11.48;;;8.60;99.90;;;;;;5055920;28;20041;-67
2024/01/24 07:58:15;;;;;;;26.25;10.23;;;8.60;99.90;;;;;;5051256;28;20044;-68
2024/01/24 08:00:41;;;;;;;29.70;10.25;;;8.60;99.90;;;;;;5057771;28;20041;-68
2024/01/24 08:03:07;;;;;;;21.27;9.57;;;8.60;99.90;;;;;;5063342;28;20477;-67
2024/01/24 08:05:34;;;;;;;27.83;10.68;;;8.60;99.90;;;;;;5060813;28;20051;-67
2024/01/24 08:08:01;;;;;;;31.38;9.65;;;8.60;99.90;;;;;;5059343;28;20028;-67
2024/01/24 08:10:28;;;;;;;31.10;10.23;;;;;;;;;;5060104;28;20135;-67
2024/01/24 08:12:54;;;;;;;45.47;12.50;;;;;;;;;;5062540;28;20032;-68
2024/01/24 08:15:20;;;;;;;34.53;10.43;;;;;;;;;;5063356;28;20059;-67
2024/01/24 08:17:47;;;;;;;22.75;9.88;;;;;;;;;;5055698;28;20084;-67
2024/01/24 08:20:14;;;;;;;26.88;10.77;;;;;;;;;;5070443;28;20048;-68
2024/01/24 08:22:40;;;;;;;41.50;11.85;;;;;;;;;;5064041;28;20059;-67
2024/01/24 08:25:06;;;;;;;32.20;11.68;;;;;;;;;;5058825;28;20570;-67
2024/01/24 08:27:32;;;;;;;34.05;10.50;;;;;;;;;;5069090;28;20040;-67
2024/01/24 08:29:59;;;;;;;35.05;10.02;;;;;;;;;;5056360;28;20054;-67
2024/01/24 08:32:26;;;;;;;44.35;11.10;;;;;;;;;;5061801;28;20041;-67
2024/01/24 08:34:52;;;;;;;32.30;9.02;;;;;;;;;;5058832;28;20042;-66
2024/01/24 08:37:18;;;;;;;37.17;11.18;;;;;;;;;;5053960;28;20533;-68
2024/01/24 08:39:44;;;;;;;32.38;11.07;;;;;;;;;;5063671;28;20075;-68
2024/01/24 08:42:10;;;;;;;30.33;9.63;;;;;;;;;;5065868;28;20048;-68
2024/01/24 08:44:37;;;;;;;27.45;11.00;;;;;;;;;;5057123;28;20059;-67
2024/01/24 08:47:03;;;;;;;34.10;12.38;;;;;;;;;;5046686;28;20526;-67
2024/01/24 08:49:31;;;;;;;34.35;12.95;;;;;;;;;;5064551;28;20094;-67
2024/01/24 08:51:57;;;;;;;31.20;10.32;;;;;;;;;;5063222;28;20132;-68
2024/01/24 08:54:23;;;;;;;33.75;11.95;;;;;;;;;;5064619;28;20124;-67
2024/01/24 08:56:49;;;;;;;40.17;10.77;;;;;;;;;;5065533;28;20342;-67
2024/01/24 08:59:15;;;;;;;28.10;9.20;;;;;;;;;;5056206;28;20041;-68
2024/01/24 09:01:41;;;;;;;26.95;9.27;;;;;;;;;;5068619;28;20046;-68
2024/01/24 09:04:08;;;;;;;31.42;12.23;;;;;;;;;;5065575;28;20050;-67
2024/01/24 09:06:34;;;;;;;35.05;12.73;;;;;;;;;;5060279;28;20048;-68
2024/01/24 09:09:00;;;;;;;26.20;10.00;;;;;;;;;;5064584;28;20037;-68
2024/01/24 09:11:26;;;;;;;29.90;10.30;;;;;;;;;;5061748;28;20032;-67
2024/01/24 09:13:52;;;;;;;29.88;10.40;;;;;;;;;;5053728;28;20046;-67
2024/01/24 09:16:18;;;;;;;39.67;11.70;;;;;;;;;;5054173;28;20036;-66
2024/01/24 09:18:45;;;;;;;25.17;9.60;;;;;;;;;;5056063;28;20520;-68
2024/01/24 09:21:11;;;;;;;27.50;9.32;;;;;;;;;;5059733;28;20050;-66
2024/01/24 09:23:37;;;;;;;34.38;10.10;;;;;;;;;;5061191;28;20123;-66
2024/01/24 09:26:03;;;;;;;32.85;11.35;;;;;;;;;;5063624;28;20447;-66
2024/01/24 09:28:29;;;;;;;38.50;12.35;;;;;;;;;;5062401;28;20159;-66
2024/01/24 09:30:56;;;;;;;22.55;8.65;;;;;;;;;;5059368;28;20045;-67
2024/01/24 09:33:23;;;;;;;29.25;9.32;;;;;;;;;;5080187;28;20044;-67
2024/01/24 09:35:49;;;;;;;29.08;9.73;;;;;;;;;;5058868;28;20087;-66
2024/01/24 09:38:15;;;;;;;33.17;9.75;;;;;;;;;;5062308;28;20823;-66
2024/01/24 09:40:42;;;;;;;24.48;9.38;;;;;;;;;;5061703;28;20048;-66
2024/01/24 09:43:09;;;;;;;36.50;9.82;;;8.60;99.90;;;;;;5060592;28;20101;-66
2024/01/24 09:45:39;;;;;;;25.20;9.27;;;9.40;99.90;;;;;;5065128;28;20115;-66
2024/01/24 09:48:08;;;;;;;23.75;9.38;;;9.40;99.90;;;;;;5063291;28;20079;-66
2024/01/24 09:50:35;;;;;;;23.98;8.50;;;9.50;99.90;;;;;;5067262;28;20091;-66
2024/01/24 09:53:03;;;;;;;27.25;8.15;;;9.60;99.90;;;;;;5060307;28;20046;-66
2024/01/24 09:55:31;;;;;;;28.65;9.02;;;9.70;99.90;;;;;;5059596;28;20074;-66
2024/01/24 09:57:57;;;;;;;25.45;8.68;;;9.80;99.90;;;;;;5053591;28;20044;-66
2024/01/24 10:00:23;;;;;;;29.58;9.85;;;9.90;99.90;;;;;;5060248;28;20047;-67
2024/01/24 10:02:49;;;;;;;31.20;10.05;;;;;;;;;;5042672;28;20048;-65
2024/01/24 10:05:17;;;;;;;29.00;10.45;;;;;;;;;;5064758;28;20044;-67
2024/01/24 10:07:43;;;;;;;23.17;9.13;;;;;;;;;;5060728;28;20409;-66
2024/01/24 10:10:12;;;;;;;32.78;10.15;;;;;;;;;;5068314;28;20044;-67
2024/01/24 10:12:41;;;;;;;29.75;9.25;;;;;;;;;;5064005;28;20048;-66
2024/01/24 10:15:08;;;;;;;32.40;11.57;;;10.00;99.90;;;;;;5065359;28;20052;-66
2024/01/24 10:17:34;;;;;;;24.27;9.95;;;10.70;99.90;;;;;;5064162;28;20501;-66
2024/01/24 10:20:00;;;;;;;23.20;7.72;;;;;;;;;;5062460;28;20127;-67
2024/01/24 10:22:26;;;;;;;28.00;9.88;;;;;;;;;;5061881;28;20047;-67
2024/01/24 10:24:55;;;;;;;26.35;8.95;;;;;;;;;;5055885;28;20132;-67
2024/01/24 10:27:22;;;;;;;34.08;8.52;;;;;;;;;;5059898;28;20412;-67
2024/01/24 10:29:48;;;;;;;31.25;8.32;;;10.80;99.90;;;;;;5063883;28;20215;-66
2024/01/24 10:32:14;;;;;;;34.00;10.13;;;;;;;;;;5050090;28;20079;-66
2024/01/24 10:34:40;;;;;;;22.13;8.00;;;;;;;;;;5062649;28;20051;-66
2024/01/24 10:37:06;;;;;;;28.00;9.18;;;;;;;;;;5064008;28;20072;-65
2024/01/24 10:39:35;;;;;;;22.10;8.32;;;11.30;99.90;;;;;;5062854;28;20040;-66
2024/01/24 10:42:06;;;;;;;18.95;9.23;;;11.70;99.90;;;;;;5060439;28;20040;-66
2024/01/24 10:44:37;;;;;;;22.40;8.18;;;11.80;99.90;;;;;;5057470;28;20123;-66
2024/01/24 10:47:05;;;;;;;23.70;9.07;;;11.90;99.90;;;;;;5065215;28;20053;-66
2024/01/24 10:49:32;;;;;;;29.75;8.90;;;;;;;;;;5061483;28;20049;-65
2024/01/24 10:51:58;;;;;;;23.50;8.35;;;12.00;99.90;;;;;;5060968;28;20040;-65
2024/01/24 10:54:24;;;;;;;23.70;8.88;;;12.20;99.90;;;;;;5064650;28;20249;-65
2024/01/24 10:56:51;;;;;;;26.85;9.38;;;;;;;;;;5061414;28;20040;-66
2024/01/24 10:59:20;;;;;;;24.15;9.32;;;12.20;99.90;;;;;;5054751;28;20094;-66
2024/01/24 11:01:49;;;;;;;24.13;9.18;;;12.40;99.90;;;;;;5062348;28;20047;-66
2024/01/24 11:04:21;;;;;;;25.55;8.35;;;12.50;99.90;;;;;;5054390;28;20033;-66
2024/01/24 11:07:00;;;;;;;22.63;9.10;;;12.70;99.90;;;;;;5062039;28;20045;-66
2024/01/24 11:09:38;;;;;;;23.63;8.80;;;12.70;99.90;;;;;;5066079;28;20066;-66
2024/01/24 11:12:05;;;;;;;27.05;9.05;;;12.80;99.90;;;;;;5061289;28;20462;-67
2024/01/24 11:14:36;;;;;;;27.63;8.07;;;12.90;99.90;;;;;;5055986;28;20056;-67
2024/01/24 11:17:03;;;;;;;24.70;9.90;;;13.00;99.90;;;;;;5059301;28;20116;-66
2024/01/24 11:19:30;;;;;;;25.13;8.10;;;13.00;99.90;;;;;;5059689;28;20125;-66
2024/01/24 11:22:04;;;;;;;27.80;9.27;;;13.10;99.90;;;;;;5056905;28;20046;-67
2024/01/24 11:24:43;;;;;;;38.30;10.30;;;13.20;99.90;;;;;;5066196;28;20033;-66
2024/01/24 11:27:27;;;;;;;22.67;8.93;;;13.40;99.90;;;;;;5057710;28;20045;-67
2024/01/24 11:29:55;;;;;;;28.40;9.05;;;14.00;99.90;;;;;;5064480;28;20063;-67
2024/01/24 11:32:47;;;;;;;25.73;9.27;;;14.50;99.90;;;;;;5056948;28;20477;-66
2024/01/24 11:35:31;;;;;;;20.65;7.03;;;14.90;99.90;;;;;;5060893;28;20306;-67
2024/01/24 11:38:03;;;;;;;23.63;8.30;;;15.00;99.90;;;;;;5068989;28;20143;-66
2024/01/24 11:40:32;;;;;;;;;;;15.00;99.90;;;;;;5053204;28;20124;-67
2024/01/24 11:42:58;;;;;;;27.13;8.13;;;15.00;99.90;;;;;;5061148;28;19925;-66
2024/01/24 11:45:25;;;;;;;20.20;7.63;;;15.00;99.90;;;;;;5063148;28;20136;-67
2024/01/24 11:47:52;;;;;;;26.83;8.40;;;15.10;99.90;;;;;;5058736;28;20045;-67
2024/01/24 11:50:19;;;;;;;24.58;8.05;;;;;;;;;;5064484;28;20106;-66
2024/01/24 11:52:45;;;;;;;18.75;7.70;;;15.30;99.90;;;;;;5049654;28;20063;-66
2024/01/24 11:55:12;;;;;;;17.52;8.63;;;;;;;;;;5059137;28;20033;-68
2024/01/24 11:57:38;;;;;;;18.30;6.88;;;;;;;;;;5057111;28;20116;-66
2024/01/24 12:00:06;;;;;;;18.02;7.68;;;;;;;;;;5055483;28;20053;-67
2024/01/24 12:02:33;;;;;;;25.67;8.07;;;16.00;99.90;;;;;;5054940;28;20067;-69
2024/01/24 12:05:00;;;;;;;23.70;7.18;;;;;;;;;;5059252;28;20040;-67
2024/01/24 12:07:26;;;;;;;20.95;8.93;;;;;;;;;;5055214;28;20032;-66
2024/01/24 12:09:53;;;;;;;16.48;7.13;;;16.40;99.90;;;;;;5062004;28;20161;-67
2024/01/24 12:12:20;;;;;;;18.70;7.28;;;;;;;;;;5060530;28;20097;-68
2024/01/24 12:14:46;;;;;;;23.73;7.18;;;17.30;99.90;;;;;;5056517;28;20044;-66
2024/01/24 12:17:12;;;;;;;18.50;7.35;;;;;;;;;;5051603;28;20125;-67
2024/01/24 12:19:44;;;;;;;20.25;6.95;;;17.80;99.90;;;;;;5058603;28;20063;-68
2024/01/24 12:22:12;;;;;;;17.95;6.78;;;18.30;99.90;;;;;;5065940;28;20486;-66
2024/01/24 12:24:39;;;;;;;18.20;7.07;;;;;;;;;;5068388;28;20067;-68
2024/01/24 12:27:06;;;;;;;20.20;6.90;;;;;;;;;;5068862;28;20041;-67
2024/01/24 12:29:33;;;;;;;21.45;6.22;;;18.60;99.90;;;;;;5064104;28;20105;-68
2024/01/24 12:32:03;;;;;;;25.67;6.63;;;19.20;99.90;;;;;;5067067;28;20159;-67
2024/01/24 12:34:30;;;;;;;19.10;7.45;;;;;;;;;;5059649;28;20040;-68
2024/01/24 12:37:02;;;;;;;22.23;8.77;;;19.30;99.50;;;;;;5062014;28;20045;-68
2024/01/24 12:39:34;;;;;;;12.63;6.50;;;;;;;;;;5063250;28;20051;-68
2024/01/24 12:42:00;;;;;;;;;;;;;;;;;;5058553;28;20788;-67
2024/01/24 12:44:27;;;;;;;16.92;7.63;;;;;;;;;;5063470;28;19959;-68
2024/01/24 12:46:57;;;;;;;16.85;6.28;;;;;;;;;;5061611;28;20045;-67
2024/01/24 12:49:24;;;;;;;19.05;6.50;;;;;;;;;;5064037;28;20148;-68
2024/01/24 12:51:51;;;;;;;16.55;7.15;;;;;;;;;;5067790;28;20059;-68
2024/01/24 12:54:17;;;;;;;22.63;7.07;;;19.40;99.00;;;;;;5054435;28;20045;-67
2024/01/24 12:56:45;;;;;;;22.50;7.97;;;;;;;;;;5050374;28;20051;-68
2024/01/24 12:59:11;;;;;;;19.00;7.35;;;;;;;;;;5055238;28;20147;-68
2024/01/24 13:01:37;;;;;;;22.52;8.57;;;;;;;;;;5047397;28;20033;-67
2024/01/24 13:04:03;;;;;;;29.20;6.90;;;;;;;;;;5055004;28;20044;-67
2024/01/24 13:06:29;;;;;;;21.33;8.98;;;;;;;;;;5065697;28;20085;-67
2024/01/24 13:08:55;;;;;;;19.75;7.82;;;;;;;;;;5055252;28;20063;-68
2024/01/24 13:11:21;;;;;;;17.95;6.90;;;;;;;;;;5063299;28;20048;-67
2024/01/24 13:13:48;;;;;;;22.13;7.38;;;;;;;;;;5066272;28;20044;-68
2024/01/24 13:16:14;;;;;;;17.15;7.65;;;;;;;;;;5064953;28;20454;-67
2024/01/24 13:18:40;;;;;;;25.77;7.05;;;19.50;98.00;;;;;;5066642;28;20043;-67